createdAt,value
2022-09-20T00:00:15.432Z,11.20
2022-09-20T00:05:17.606Z,11.30
2022-09-20T00:10:19.403Z,11.20
2022-09-20T00:15:21.192Z,11.30
2022-09-20T00:20:23.164Z,11.00
2022-09-20T00:25:24.833Z,11.00
2022-09-20T00:30:26.536Z,11.00
2022-09-20T00:35:29.662Z,11.00
2022-09-20T00:40:31.626Z,10.90
2022-09-20T00:45:34.263Z,10.90
2022-09-20T00:50:51.434Z,11.70
2022-09-20T00:55:58.755Z,11.40
2022-09-20T01:01:00.514Z,10.90
2022-09-20T01:06:08.030Z,10.90
2022-09-20T01:11:09.818Z,10.80
2022-09-20T01:16:13.716Z,10.90
2022-09-20T01:21:17.540Z,11.00
2022-09-20T01:26:37.645Z,11.00
2022-09-20T01:31:46.063Z,11.10
2022-09-20T01:36:57.146Z,11.10
2022-09-20T01:53:03.273Z,11.60
2022-09-20T01:58:26.785Z,10.90
2022-09-20T02:03:59.015Z,11.10
2022-09-20T02:09:19.169Z,11.10
2022-09-20T02:14:55.897Z,11.10
2022-09-20T02:20:17.781Z,11.00
2022-09-20T02:25:55.632Z,11.00
2022-09-20T02:31:13.145Z,11.00
2022-09-20T02:36:24.998Z,10.90
2022-09-20T02:41:58.766Z,10.70
2022-09-20T02:47:09.354Z,10.80
2022-09-20T02:52:26.095Z,10.80
2022-09-20T02:57:48.855Z,10.90
2022-09-20T03:03:13.774Z,10.80
2022-09-20T03:08:40.503Z,11.20
2022-09-20T03:14:03.916Z,10.90
2022-09-20T03:19:26.953Z,11.00
2022-09-20T03:25:05.927Z,11.00
2022-09-20T03:30:26.736Z,10.80
2022-09-20T03:36:09.910Z,10.80
2022-09-20T03:41:25.241Z,10.80
2022-09-20T03:46:28.008Z,10.90
2022-09-20T03:51:36.781Z,10.90
2022-09-20T03:56:41.834Z,10.70
2022-09-20T04:01:52.091Z,10.70
2022-09-20T04:07:06.323Z,10.80
2022-09-20T04:12:39.859Z,10.80
2022-09-20T04:17:58.625Z,10.90
2022-09-20T04:23:10.316Z,10.90
2022-09-20T04:28:20.637Z,12.00
2022-09-20T04:33:28.275Z,10.90
2022-09-20T04:38:30.819Z,10.80
2022-09-20T04:43:55.034Z,10.80
2022-09-20T04:49:38.839Z,10.70
2022-09-20T04:54:49.723Z,10.70
2022-09-20T05:00:12.491Z,10.60
2022-09-20T05:05:40.399Z,10.50
2022-09-20T05:11:12.351Z,10.40
2022-09-20T05:16:44.020Z,10.20
2022-09-20T05:22:27.596Z,10.30
2022-09-20T05:28:00.077Z,10.30
2022-09-20T05:33:24.873Z,10.60
2022-09-20T05:38:48.043Z,10.60
2022-09-20T05:44:15.899Z,10.70
2022-09-20T05:54:40.552Z,10.80
2022-09-20T06:00:03.830Z,10.70
2022-09-20T06:05:30.184Z,10.70
2022-09-20T06:10:51.110Z,10.90
2022-09-20T06:16:01.374Z,10.80
2022-09-20T06:21:21.731Z,10.70
2022-09-20T06:26:27.289Z,10.90
2022-09-20T06:31:29.208Z,10.80
2022-09-20T06:36:55.001Z,10.90
2022-09-20T06:41:57.944Z,11.20
2022-09-20T06:52:08.347Z,11.10
2022-09-20T07:02:12.559Z,11.20
2022-09-20T07:07:18.065Z,11.70
2022-09-20T07:12:19.815Z,11.70
2022-09-20T07:22:24.199Z,11.90
2022-09-20T07:27:29.212Z,12.00
2022-09-20T07:37:36.976Z,12.70
2022-09-20T07:42:38.948Z,12.90
2022-09-20T07:52:46.755Z,12.80
2022-09-20T07:57:48.622Z,13.10
2022-09-20T08:02:59.145Z,13.30
2022-09-20T08:18:27.962Z,14.50
2022-09-20T08:28:33.189Z,14.70
2022-09-20T08:33:38.708Z,13.10
2022-09-20T08:44:04.438Z,13.90
2022-09-20T08:49:10.992Z,14.10
2022-09-20T08:54:15.986Z,13.50
2022-09-20T08:59:22.642Z,14.30
2022-09-20T09:04:35.660Z,13.60
2022-09-20T09:09:41.208Z,14.50
2022-09-20T09:14:48.869Z,14.40
2022-09-20T09:19:58.590Z,15.60
2022-09-20T09:25:34.178Z,14.60
2022-09-20T09:30:47.614Z,14.50
2022-09-20T09:36:05.146Z,15.50
2022-09-20T09:41:24.416Z,14.30
2022-09-20T09:46:31.075Z,14.30
2022-09-20T09:57:15.795Z,14.50
2022-09-20T10:02:49.509Z,14.90
2022-09-20T10:08:15.831Z,15.90
2022-09-20T10:13:54.055Z,15.20
2022-09-20T10:19:06.831Z,15.00
2022-09-20T10:24:32.000Z,14.80
2022-09-20T10:30:05.037Z,14.70
2022-09-20T10:35:30.007Z,16.20
2022-09-20T10:41:18.014Z,17.20
2022-09-20T10:46:33.364Z,17.70
2022-09-20T10:51:52.989Z,17.50
2022-09-20T10:57:29.310Z,17.90
2022-09-20T11:03:18.080Z,16.80
2022-09-20T11:08:22.913Z,16.80
2022-09-20T11:13:38.824Z,17.90
2022-09-20T11:18:58.959Z,16.70
2022-09-20T11:24:25.446Z,18.70
2022-09-20T11:29:33.328Z,19.10
2022-09-20T11:34:42.778Z,19.60
2022-09-20T11:40:14.198Z,20.40
2022-09-20T11:45:16.085Z,20.50
2022-09-20T11:50:38.938Z,20.50
2022-09-20T11:55:57.361Z,20.60
2022-09-20T12:00:59.986Z,20.50
2022-09-20T12:06:07.623Z,19.30
2022-09-20T12:11:13.664Z,18.70
2022-09-20T12:16:18.067Z,17.40
2022-09-20T12:21:21.120Z,16.50
2022-09-20T12:26:22.801Z,16.50
2022-09-20T12:31:24.489Z,16.40
2022-09-20T12:36:29.814Z,15.80
2022-09-20T12:41:53.182Z,15.70
2022-09-20T12:47:12.307Z,15.70
2022-09-20T12:52:43.270Z,15.50
2022-09-20T12:57:45.444Z,14.60
2022-09-20T13:02:53.173Z,14.80
2022-09-20T13:08:00.323Z,15.60
2022-09-20T13:13:43.173Z,15.50
2022-09-20T13:18:44.910Z,19.40
2022-09-20T13:23:51.023Z,20.30
2022-09-20T13:28:55.716Z,18.70
2022-09-20T13:34:23.206Z,18.00
2022-09-20T13:39:36.350Z,21.40
2022-09-20T13:44:39.233Z,21.00
2022-09-20T13:49:43.329Z,20.20
2022-09-20T13:54:45.031Z,19.60
2022-09-20T13:59:47.520Z,21.60
2022-09-20T14:04:51.286Z,22.20
2022-09-20T14:09:54.097Z,22.20
2022-09-20T14:14:56.324Z,23.10
2022-09-20T14:19:58.303Z,24.50
2022-09-20T14:25:04.401Z,23.70
2022-09-20T14:30:07.334Z,23.40
2022-09-20T14:35:14.555Z,21.00
2022-09-20T14:40:21.411Z,19.90
2022-09-20T14:45:29.808Z,19.10
2022-09-20T14:50:34.200Z,18.70
2022-09-20T14:55:37.941Z,19.20
2022-09-20T15:00:57.992Z,20.30
2022-09-20T15:05:59.984Z,21.00
2022-09-20T15:11:01.717Z,23.10
2022-09-20T15:16:03.502Z,23.90
2022-09-20T15:21:05.960Z,22.50
2022-09-20T15:26:10.487Z,22.70
2022-09-20T15:31:13.565Z,20.10
2022-09-20T15:36:15.415Z,18.50
2022-09-20T15:41:17.122Z,18.00
2022-09-20T15:46:21.653Z,17.60
2022-09-20T15:51:23.386Z,17.10
2022-09-20T15:56:27.644Z,17.60
2022-09-20T16:01:32.815Z,18.20
2022-09-20T16:06:34.619Z,17.30
2022-09-20T16:11:37.065Z,16.50
2022-09-20T16:16:40.623Z,16.00
2022-09-20T16:21:44.684Z,15.80
2022-09-20T16:26:46.873Z,15.60
2022-09-20T16:31:50.212Z,15.40
2022-09-20T16:36:54.233Z,15.50
2022-09-20T16:42:04.944Z,15.40
2022-09-20T16:47:10.553Z,15.30
2022-09-20T16:52:12.302Z,15.00
2022-09-20T17:07:24.296Z,14.30
2022-09-20T17:17:30.754Z,13.80
2022-09-20T17:22:32.527Z,13.70
2022-09-20T17:32:38.764Z,13.50
2022-09-20T17:42:44.311Z,13.10
2022-09-20T17:47:46.266Z,12.90
2022-09-20T17:52:47.940Z,12.90
2022-09-20T17:57:52.238Z,12.70
2022-09-20T18:07:55.978Z,12.40
2022-09-20T18:12:57.725Z,12.40
2022-09-20T18:17:59.729Z,12.40
2022-09-20T18:23:01.381Z,15.10
2022-09-20T18:28:03.060Z,11.90
2022-09-20T18:43:09.475Z,11.90
2022-09-20T18:53:13.442Z,11.70
2022-09-20T18:58:20.122Z,11.90
2022-09-20T19:03:48.036Z,11.40
2022-09-20T19:09:30.241Z,11.40
2022-09-20T19:15:02.407Z,11.40
2022-09-20T19:20:13.654Z,11.40
2022-09-20T19:25:44.038Z,11.40
2022-09-20T19:30:48.116Z,11.40
2022-09-20T19:35:51.481Z,11.30
2022-09-20T19:41:06.582Z,11.20
2022-09-20T19:46:30.581Z,11.20
2022-09-20T19:51:35.865Z,11.10
2022-09-20T19:56:48.290Z,11.00
2022-09-20T20:01:50.477Z,11.00
2022-09-20T20:07:20.166Z,10.80
2022-09-20T20:12:52.557Z,10.70
2022-09-20T20:18:14.526Z,10.90
2022-09-20T20:23:56.029Z,10.80
2022-09-20T20:28:57.698Z,10.70
2022-09-20T20:33:59.362Z,10.50
2022-09-20T20:54:10.367Z,10.50
2022-09-20T20:59:12.094Z,12.50
2022-09-20T21:04:15.681Z,10.60
2022-09-20T21:44:34.475Z,10.40
2022-09-20T22:24:51.682Z,9.80
2022-09-20T22:29:53.654Z,9.90
2022-09-20T22:34:56.592Z,9.80
2022-09-20T22:50:02.786Z,9.60
2022-09-20T22:55:04.766Z,9.50
2022-09-20T23:00:07.428Z,9.40
2022-09-20T23:05:09.214Z,9.50
